< < Back
Terminal Aerodrome Forecast


Current Version              Previous Versions:   1  2  3  4  5  6  7  8  9  

Terminal Aerodrome Forecast

201
FTUS44 KBMX 210500
TAFBHM
TAF
KBHM 210520Z 2106/2206 33006KT P6SM SKC=

Latest METAR

563
SAUS70 KWBC 220300 RRD
MTRBHM
METAR KBHM 220253Z 00000KT 10SM CLR 13/09 A3007 RMK AO2 SLP178 T01330094
51013


USA.gov is the U.S. government's official web portal to all federal, state and local government web resources and services.